Aviation Digital Data Service (ADDS)

Output produced by METARs form (0636 UTC 27 March 2017)
found at http://www.aviationweather.gov/adds/metars/
 
EKYT 270620Z 25012KT 0300 R08/1400U R26/0800D FG VV001 06/06 Q1023
TAF EKYT 270449Z 2706/2806 25012KT 0400 FG BKN001 
     TEMPO 2706/2707 4000 BR BKN004 
     BECMG 2707/2709 9999 NSW BKN004 
     BECMG 2709/2711 FEW015 
     TEMPO 2719/2721 BKN005 
     BECMG 2721/2723 0800 FG BKN002 
     TEMPO 2723/2806 3000 BR BKN005
       
EKAH 270620Z AUTO 26005KT 2400NDV BR OVC001/// 04/04 Q1024
TAF EKAH 270507Z 2706/2806 24008KT 6000 BKN001 
     TEMPO 2706/2709 0800 FG BKN005 
     BECMG 2709/2711 FEW005 
     TEMPO 2711/2715 BKN005 
     BECMG 2721/2724 3000 BR BKN005
       
EKBI 270620Z 27008KT 2500 BR BKN003 03/03 Q1025
TAF EKBI 270507Z 2706/2806 26008KT 0200 FG VV002 
     TEMPO 2706/2709 2000 BR BKN005 
     BECMG 2709/2711 6000 NSW FEW005 
     TEMPO 2711/2806 3000 BR BKN005
       
EKRN 270620Z AUTO 30011KT 0150NDV R11/0450N R29/0450N FG VV002 03/03 Q1024
TAF EKRN 270524Z 2706/2715 29010KT 0200 FG BKN003 
     TEMPO 2706/2710 4000 BR BKN008 
     BECMG 2710/2712 6000 NSW BKN010
       
EKEB 270620Z AUTO 28006KT 1500NDV BR OVC003/// 04/04 Q1026
TAF EKEB 270524Z 2706/2715 28006KT 0400 FG OVC002 
     TEMPO 2706/2712 2000 BR BKN005
       
EKKA 270624Z 24008KT 0500 R09/1300D R27/1300N FG OVC002 05/05 Q1024 TEMPO 3000 BKN005
TAF EKKA 270449Z 2706/2806 25008KT 0500 FG BKN002 
     TEMPO 2706/2708 4000 BR BKN005 
     BECMG 2708/2710 9999 NSW BKN005 
     BECMG 2710/2712 SCT015 
     BECMG 2718/2720 3000 BR BKN005 
     TEMPO 2720/2806 0800 FG BKN002
       
EKCH 270620Z 27005KT 1400 R22L/P1500N R04L/P1500N R12/P1500U BR OVC002 05/04 Q1025 TEMPO 0800
TAF AMD EKCH 270554Z 2706/2806 29008KT 1500 BR BKN003 
     TEMPO 2706/2708 0800 FG 
     BECMG 2708/2710 6000 NSW BKN012 
     TEMPO 2710/2712 BKN005 
     BECMG 2721/2724 3000 BR BKN005
       
EKVD 270620Z 26009KT 1400 0500S BCFG BKN001 04/04 Q1026
EKAH 270620Z AUTO 26005KT 2400NDV BR OVC001/// 04/04 Q1024
TAF EKAH 270507Z 2706/2806 24008KT 6000 BKN001 
     TEMPO 2706/2709 0800 FG BKN005 
     BECMG 2709/2711 FEW005 
     TEMPO 2711/2715 BKN005 
     BECMG 2721/2724 3000 BR BKN005
       
EKBI 270620Z 27008KT 2500 BR BKN003 03/03 Q1025
TAF EKBI 270507Z 2706/2806 26008KT 0200 FG VV002 
     TEMPO 2706/2709 2000 BR BKN005 
     BECMG 2709/2711 6000 NSW FEW005 
     TEMPO 2711/2806 3000 BR BKN005
       
EKCH 270620Z 27005KT 1400 R22L/P1500N R04L/P1500N R12/P1500U BR OVC002 05/04 Q1025 TEMPO 0800
TAF AMD EKCH 270554Z 2706/2806 29008KT 1500 BR BKN003 
     TEMPO 2706/2708 0800 FG 
     BECMG 2708/2710 6000 NSW BKN012 
     TEMPO 2710/2712 BKN005 
     BECMG 2721/2724 3000 BR BKN005
       
EKEB 270620Z AUTO 28006KT 1500NDV BR OVC003/// 04/04 Q1026
TAF EKEB 270524Z 2706/2715 28006KT 0400 FG OVC002 
     TEMPO 2706/2712 2000 BR BKN005
       
TAF EKGF 270553Z 2706/2715 32005KT 0200 FG VV002 
     TEMPO 2706/2715 5000 BCFG BKN008
       
EKKA 270624Z 24008KT 0500 R09/1300D R27/1300N FG OVC002 05/05 Q1024 TEMPO 3000 BKN005
TAF EKKA 270449Z 2706/2806 25008KT 0500 FG BKN002 
     TEMPO 2706/2708 4000 BR BKN005 
     BECMG 2708/2710 9999 NSW BKN005 
     BECMG 2710/2712 SCT015 
     BECMG 2718/2720 3000 BR BKN005 
     TEMPO 2720/2806 0800 FG BKN002
       
EKOD 270620Z 26009KT 240V300 1200 BR OVC003 04/03 Q1025
EKRK 270620Z AUTO 28007KT 0750NDV R11/1400U R29/1300N FG VV001 04/04 Q1025
TAF EKRK 270524Z 2706/2715 27008KT 0400 FG VV001 
     TEMPO 2706/2710 4000 BR BKN005 
     BECMG 2710/2712 6000 NSW FEW005
       
EKRN 270620Z AUTO 30011KT 0150NDV R11/0450N R29/0450N FG VV002 03/03 Q1024
TAF EKRN 270524Z 2706/2715 29010KT 0200 FG BKN003 
     TEMPO 2706/2710 4000 BR BKN008 
     BECMG 2710/2712 6000 NSW BKN010
       
EKSB 270620Z 24006KT 210V280 0800 R14/1100U R32/0500D FG VV002 04/03 Q1025
TAF EKSB 270554Z 2706/2715 26005KT 0400 FG VV002 
     TEMPO 2706/2709 4000 BR BKN008 
     BECMG 2709/2711 6000 NSW FEW008
       
EKSN 270620Z 24007KT 0600 FG VV002 04/04 Q1022
EKSP 270620Z 26007KT 1000 R10/P2000D R28/1700U BR BKN003 03/03 Q1026 TEMPO 0300 FG
TAF EKSP 270509Z 2706/2806 26008KT 0300 FG BKN001 
     TEMPO 2706/2708 3000 BR BKN004 
     BECMG 2708/2710 6000 NSW BKN005 
     BECMG 2710/2712 9999 SCT010 
     TEMPO 2712/2717 BKN010 
     BECMG 2717/2720 4000 BR BKN005 
     BECMG 2720/2722 0300 FG BKN001
       
EKVD 270620Z 26009KT 1400 0500S BCFG BKN001 04/04 Q1026
EKVG 270620Z AUTO 33007KT 9999NDV BKN010/// 06/04 Q1025 RMK BKN013/// WIND 850FT 32003KT
TAF AMD EKVG 270631Z 2706/2715 32010KT 9999 BKN020 
     TEMPO 2706/2715 BKN010 
     BECMG 2709/2711 08010KT
       
EKYT 270620Z 25012KT 0300 R08/1400U R26/0800D FG VV001 06/06 Q1023
TAF EKYT 270449Z 2706/2806 25012KT 0400 FG BKN001 
     TEMPO 2706/2707 4000 BR BKN004 
     BECMG 2707/2709 9999 NSW BKN004 
     BECMG 2709/2711 FEW015 
     TEMPO 2719/2721 BKN005 
     BECMG 2721/2723 0800 FG BKN002 
     TEMPO 2723/2806 3000 BR BKN005
       
EKOD 270620Z 26009KT 240V300 1200 BR OVC003 04/03 Q1025
EKRK 270620Z AUTO 28007KT 0750NDV R11/1400U R29/1300N FG VV001 04/04 Q1025
TAF EKRK 270524Z 2706/2715 27008KT 0400 FG VV001 
     TEMPO 2706/2710 4000 BR BKN005 
     BECMG 2710/2712 6000 NSW FEW005
       
EKSN 270620Z 24007KT 0600 FG VV002 04/04 Q1022
EKSP 270620Z 26007KT 1000 R10/P2000D R28/1700U BR BKN003 03/03 Q1026 TEMPO 0300 FG
TAF EKSP 270509Z 2706/2806 26008KT 0300 FG BKN001 
     TEMPO 2706/2708 3000 BR BKN004 
     BECMG 2708/2710 6000 NSW BKN005 
     BECMG 2710/2712 9999 SCT010 
     TEMPO 2712/2717 BKN010 
     BECMG 2717/2720 4000 BR BKN005 
     BECMG 2720/2722 0300 FG BKN001
       
EKSB 270620Z 24006KT 210V280 0800 R14/1100U R32/0500D FG VV002 04/03 Q1025
TAF EKSB 270554Z 2706/2715 26005KT 0400 FG VV002 
     TEMPO 2706/2709 4000 BR BKN008 
     BECMG 2709/2711 6000 NSW FEW008